createdAt,value
2022-10-28T00:01:12.978Z,8.97
2022-10-28T00:03:41.335Z,8.34
2022-10-28T00:06:10.218Z,8.79
2022-10-28T00:08:37.706Z,9.31
2022-10-28T00:11:04.213Z,9.01
2022-10-28T00:13:30.839Z,9.34
2022-10-28T00:16:03.436Z,8.62
2022-10-28T00:18:30.015Z,8.69
2022-10-28T00:21:04.581Z,8.66
2022-10-28T00:23:31.122Z,8.93
2022-10-28T00:26:04.261Z,9.06
2022-10-28T00:28:30.784Z,8.76
2022-10-28T00:31:03.064Z,8.96
2022-10-28T00:33:29.651Z,8.89
2022-10-28T00:35:56.087Z,9.32
2022-10-28T00:38:22.662Z,9.06
2022-10-28T00:40:49.141Z,9.75
2022-10-28T00:43:15.774Z,10.23
2022-10-28T00:45:42.568Z,9.82
2022-10-28T00:48:09.386Z,10.54
2022-10-28T00:50:43.599Z,10.49
2022-10-28T00:53:15.381Z,9.94
2022-10-28T00:55:43.771Z,10.35
2022-10-28T00:58:11.216Z,9.97
2022-10-28T01:00:38.176Z,9.69
2022-10-28T01:03:04.964Z,10.20
2022-10-28T01:05:33.954Z,10.19
2022-10-28T01:08:01.879Z,10.03
2022-10-28T01:10:48.649Z,9.95
2022-10-28T01:13:34.995Z,10.28
2022-10-28T01:16:19.909Z,9.87
2022-10-28T01:19:01.122Z,9.83
2022-10-28T01:21:30.752Z,9.89
2022-10-28T01:24:09.512Z,10.53
2022-10-28T01:26:52.874Z,10.39
2022-10-28T01:29:38.409Z,10.54
2022-10-28T01:32:11.231Z,10.09
2022-10-28T01:34:37.853Z,10.82
2022-10-28T01:37:15.730Z,10.20
2022-10-28T01:39:52.234Z,11.20
2022-10-28T01:42:33.379Z,10.79
2022-10-28T01:45:18.577Z,10.78
2022-10-28T01:47:54.770Z,10.46
2022-10-28T01:50:40.011Z,10.28
2022-10-28T01:53:11.328Z,10.50
2022-10-28T01:55:41.338Z,10.57
2022-10-28T01:58:11.257Z,10.62
2022-10-28T02:00:38.698Z,10.45
2022-10-28T02:03:09.767Z,10.58
2022-10-28T02:05:48.505Z,10.48
2022-10-28T02:08:18.089Z,10.49
2022-10-28T02:10:54.098Z,10.52
2022-10-28T02:13:24.932Z,10.64
2022-10-28T02:15:59.204Z,10.73
2022-10-28T02:18:55.164Z,10.43
2022-10-28T02:21:30.987Z,10.60
2022-10-28T02:24:05.186Z,10.78
2022-10-28T02:26:38.450Z,10.36
2022-10-28T02:29:19.413Z,10.80
2022-10-28T02:31:56.847Z,10.05
2022-10-28T02:34:31.382Z,10.40
2022-10-28T02:37:01.586Z,10.36
2022-10-28T02:39:37.070Z,10.49
2022-10-28T02:42:10.746Z,10.14
2022-10-28T02:44:41.672Z,11.06
2022-10-28T02:47:13.151Z,10.75
2022-10-28T02:49:43.240Z,10.54
2022-10-28T02:52:11.114Z,10.65
2022-10-28T02:54:46.655Z,10.76
2022-10-28T02:57:19.573Z,10.39
2022-10-28T02:59:54.174Z,10.42
2022-10-28T03:02:20.774Z,9.95
2022-10-28T03:04:47.599Z,9.67
2022-10-28T03:07:14.125Z,10.15
2022-10-28T03:09:40.721Z,10.11
2022-10-28T03:12:07.540Z,9.78
2022-10-28T03:14:34.079Z,10.34
2022-10-28T03:17:00.615Z,10.14
2022-10-28T03:19:27.196Z,9.73
2022-10-28T03:21:53.890Z,9.58
2022-10-28T03:24:20.451Z,9.88
2022-10-28T03:26:46.984Z,9.83
2022-10-28T03:29:13.540Z,10.03
2022-10-28T03:31:40.054Z,10.08
2022-10-28T03:34:06.563Z,10.37
2022-10-28T03:36:33.099Z,10.25
2022-10-28T03:38:59.659Z,10.34
2022-10-28T03:41:26.217Z,10.05
2022-10-28T03:43:52.769Z,9.74
2022-10-28T03:46:19.349Z,9.97
2022-10-28T03:48:45.889Z,9.43
2022-10-28T03:51:12.411Z,9.97
2022-10-28T03:53:39.153Z,9.85
2022-10-28T03:56:05.733Z,9.63
2022-10-28T03:58:33.544Z,9.31
2022-10-28T04:01:02.742Z,9.72
2022-10-28T04:03:29.389Z,9.43
2022-10-28T04:05:55.925Z,9.71
2022-10-28T04:08:22.557Z,9.96
2022-10-28T04:10:49.750Z,9.94
2022-10-28T04:13:16.911Z,10.21
2022-10-28T04:15:43.409Z,9.80
2022-10-28T04:18:10.002Z,9.93
2022-10-28T04:20:36.705Z,10.16
2022-10-28T04:23:03.840Z,10.20
2022-10-28T04:25:31.216Z,9.90
2022-10-28T04:27:57.942Z,9.95
2022-10-28T04:30:24.852Z,9.84
2022-10-28T04:32:51.393Z,9.91
2022-10-28T04:35:17.993Z,9.64
2022-10-28T04:37:44.612Z,9.15
2022-10-28T04:40:11.416Z,9.76
2022-10-28T04:42:38.110Z,9.70
2022-10-28T04:45:04.955Z,9.84
2022-10-28T04:47:31.781Z,9.70
2022-10-28T04:49:58.292Z,10.07
2022-10-28T04:52:25.004Z,9.94
2022-10-28T04:54:51.662Z,9.91
2022-10-28T04:57:18.118Z,9.53
2022-10-28T04:59:45.362Z,9.51
2022-10-28T05:02:12.073Z,9.46
2022-10-28T05:04:38.766Z,9.82
2022-10-28T05:07:05.446Z,9.42
2022-10-28T05:09:32.082Z,10.03
2022-10-28T05:11:58.830Z,9.71
2022-10-28T05:14:25.378Z,9.38
2022-10-28T05:16:51.895Z,9.59
2022-10-28T05:19:18.667Z,9.44
2022-10-28T05:21:45.287Z,9.12
2022-10-28T05:24:12.072Z,9.66
2022-10-28T05:26:38.744Z,9.53
2022-10-28T05:29:05.342Z,9.68
2022-10-28T05:31:31.978Z,9.25
2022-10-28T05:33:58.651Z,8.99
2022-10-28T05:36:25.246Z,9.24
2022-10-28T05:38:51.793Z,9.21
2022-10-28T05:41:18.468Z,9.26
2022-10-28T05:43:45.009Z,8.89
2022-10-28T05:46:11.681Z,9.18
2022-10-28T05:48:38.335Z,9.09
2022-10-28T05:51:04.966Z,10.71
2022-10-28T05:53:31.640Z,9.77
2022-10-28T05:55:58.254Z,11.86
2022-10-28T05:58:24.874Z,49.56
2022-10-28T06:00:51.408Z,14.57
2022-10-28T06:03:18.082Z,11.22
2022-10-28T06:05:45.824Z,11.63
2022-10-28T06:08:13.265Z,10.34
2022-10-28T06:10:40.658Z,10.65
2022-10-28T06:13:07.356Z,9.05
2022-10-28T06:15:34.048Z,9.23
2022-10-28T06:18:00.584Z,9.78
2022-10-28T06:20:27.564Z,9.30
2022-10-28T06:22:55.680Z,9.04
2022-10-28T06:25:24.093Z,8.77
2022-10-28T06:27:54.826Z,9.00
2022-10-28T06:30:22.999Z,8.79
2022-10-28T06:32:49.573Z,8.66
2022-10-28T06:35:16.729Z,8.88
2022-10-28T06:37:43.432Z,8.86
2022-10-28T06:40:10.067Z,8.92
2022-10-28T06:42:36.933Z,8.21
2022-10-28T06:45:03.809Z,8.41
2022-10-28T06:47:31.934Z,8.73
2022-10-28T06:49:58.850Z,8.53
2022-10-28T06:52:25.432Z,8.31
2022-10-28T06:54:51.959Z,8.40
2022-10-28T06:57:18.587Z,8.40
2022-10-28T06:59:45.246Z,8.53
2022-10-28T07:02:12.220Z,8.35
2022-10-28T07:04:38.966Z,8.35
2022-10-28T07:07:05.605Z,8.32
2022-10-28T07:09:33.556Z,8.30
2022-10-28T07:12:04.812Z,8.16
2022-10-28T07:14:32.139Z,8.15
2022-10-28T07:16:58.848Z,8.09
2022-10-28T07:19:25.429Z,8.23
2022-10-28T07:21:51.975Z,7.98
2022-10-28T07:24:18.744Z,7.96
2022-10-28T07:26:47.453Z,7.66
2022-10-28T07:29:14.014Z,7.77
2022-10-28T07:31:40.570Z,8.08
2022-10-28T07:34:07.278Z,7.80
2022-10-28T07:36:33.923Z,7.70
2022-10-28T07:39:00.569Z,7.88
2022-10-28T07:41:27.628Z,7.59
2022-10-28T07:43:54.569Z,8.07
2022-10-28T07:46:21.213Z,7.89
2022-10-28T07:48:48.040Z,7.57
2022-10-28T07:51:15.567Z,8.10
2022-10-28T07:53:42.566Z,7.99
2022-10-28T07:56:13.368Z,8.03
2022-10-28T07:58:40.653Z,7.64
2022-10-28T08:01:08.804Z,7.98
2022-10-28T08:03:39.056Z,8.09
2022-10-28T08:06:08.202Z,8.34
2022-10-28T08:08:34.863Z,7.34
2022-10-28T08:11:09.640Z,7.98
2022-10-28T08:13:40.211Z,7.94
2022-10-28T08:16:08.316Z,7.72
2022-10-28T08:18:36.187Z,7.93
2022-10-28T08:21:04.391Z,7.98
2022-10-28T08:23:31.061Z,7.90
2022-10-28T08:25:58.401Z,7.38
2022-10-28T08:28:25.317Z,8.08
2022-10-28T08:31:04.086Z,7.81
2022-10-28T08:33:35.127Z,7.64
2022-10-28T08:36:01.787Z,8.17
2022-10-28T08:38:28.565Z,7.38
2022-10-28T08:41:13.964Z,7.61
2022-10-28T08:43:57.571Z,7.69
2022-10-28T08:46:47.190Z,7.87
2022-10-28T08:49:18.037Z,7.74
2022-10-28T08:51:44.590Z,8.10
2022-10-28T08:54:29.989Z,8.03
2022-10-28T08:56:59.905Z,8.11
2022-10-28T08:59:32.770Z,7.83
2022-10-28T09:02:19.451Z,7.64
2022-10-28T09:04:46.775Z,8.03
2022-10-28T09:07:16.470Z,7.57
2022-10-28T09:09:43.319Z,7.39
2022-10-28T09:12:16.406Z,7.50
2022-10-28T09:14:55.225Z,7.63
2022-10-28T09:17:33.344Z,7.97
2022-10-28T09:20:10.412Z,7.38
2022-10-28T09:22:49.654Z,7.58
2022-10-28T09:25:32.911Z,7.10
2022-10-28T09:28:06.701Z,7.31
2022-10-28T09:30:54.217Z,7.18
2022-10-28T09:33:35.971Z,7.63
2022-10-28T09:36:09.892Z,7.56
2022-10-28T09:38:39.585Z,7.46
2022-10-28T09:41:19.088Z,7.53
2022-10-28T09:44:09.026Z,7.60
2022-10-28T09:46:38.331Z,7.62
2022-10-28T09:49:10.687Z,7.57
2022-10-28T09:51:43.365Z,7.94
2022-10-28T09:54:10.954Z,7.62
2022-10-28T09:56:38.310Z,7.68
2022-10-28T09:59:05.672Z,8.27
2022-10-28T10:01:34.227Z,7.97
2022-10-28T10:04:01.409Z,8.06
2022-10-28T10:06:40.183Z,7.87
2022-10-28T10:09:17.264Z,7.75
2022-10-28T10:11:46.888Z,7.76
2022-10-28T10:14:18.943Z,7.88
2022-10-28T10:17:01.763Z,7.57
2022-10-28T10:19:28.453Z,8.19
2022-10-28T10:21:55.633Z,7.70
2022-10-28T10:24:33.545Z,7.59
2022-10-28T10:27:02.232Z,7.80
2022-10-28T10:29:30.501Z,7.96
2022-10-28T10:32:16.131Z,7.86
2022-10-28T10:34:45.407Z,7.95
2022-10-28T10:37:21.143Z,8.43
2022-10-28T10:40:00.316Z,7.88
2022-10-28T10:42:28.002Z,8.18
2022-10-28T10:45:00.120Z,8.13
2022-10-28T10:47:26.858Z,8.08
2022-10-28T10:49:55.529Z,7.74
2022-10-28T10:52:26.212Z,7.78
2022-10-28T10:54:58.862Z,8.10
2022-10-28T10:57:26.506Z,8.22
2022-10-28T10:59:54.977Z,8.23
2022-10-28T11:02:21.588Z,7.79
2022-10-28T11:04:53.777Z,7.85
2022-10-28T11:07:20.815Z,8.15
2022-10-28T11:09:49.718Z,7.91
2022-10-28T11:12:30.562Z,8.18
2022-10-28T11:15:01.849Z,8.05
2022-10-28T11:17:30.146Z,8.00
2022-10-28T11:19:58.911Z,7.88
2022-10-28T11:22:44.267Z,8.17
2022-10-28T11:25:16.979Z,7.80
2022-10-28T11:27:53.852Z,7.67
2022-10-28T11:30:32.178Z,8.10
2022-10-28T11:33:30.785Z,7.88
2022-10-28T11:36:00.492Z,7.77
2022-10-28T11:38:53.181Z,7.86
2022-10-28T11:41:22.898Z,7.59
2022-10-28T11:43:55.402Z,7.72
2022-10-28T11:46:41.760Z,8.01
2022-10-28T11:49:08.416Z,7.77
2022-10-28T11:51:53.400Z,7.90
2022-10-28T11:54:38.026Z,8.26
2022-10-28T11:57:10.627Z,7.70
2022-10-28T11:59:40.341Z,7.58
2022-10-28T12:02:35.440Z,7.67
2022-10-28T12:05:02.058Z,7.44
2022-10-28T12:07:31.591Z,7.79
2022-10-28T12:10:12.592Z,7.53
2022-10-28T12:12:58.212Z,7.48
2022-10-28T12:15:36.836Z,7.47
2022-10-28T12:18:06.067Z,6.75
2022-10-28T12:20:36.071Z,6.90
2022-10-28T12:23:06.365Z,6.84
2022-10-28T12:25:36.766Z,6.65
2022-10-28T12:28:26.020Z,7.09
2022-10-28T12:30:53.959Z,7.36
2022-10-28T12:33:25.409Z,7.05
2022-10-28T12:35:57.655Z,6.85
2022-10-28T12:38:33.424Z,6.73
2022-10-28T12:41:06.854Z,6.67
2022-10-28T12:43:45.171Z,6.59
2022-10-28T12:46:20.811Z,6.62
2022-10-28T12:48:52.905Z,6.81
2022-10-28T12:51:29.096Z,7.14
2022-10-28T12:54:12.112Z,6.68
2022-10-28T12:56:43.678Z,7.03
2022-10-28T12:59:15.848Z,7.23
2022-10-28T13:01:45.652Z,7.25
2022-10-28T13:04:13.337Z,7.27
2022-10-28T13:06:58.567Z,6.99
2022-10-28T13:09:43.739Z,6.87
2022-10-28T13:12:13.363Z,7.21
2022-10-28T13:14:46.054Z,7.33
2022-10-28T13:17:12.725Z,7.03
2022-10-28T13:19:39.362Z,6.74
2022-10-28T13:22:09.131Z,7.41
2022-10-28T13:24:54.743Z,7.01
2022-10-28T13:27:22.705Z,7.00
2022-10-28T13:29:52.475Z,6.81
2022-10-28T13:32:28.045Z,6.54
2022-10-28T13:34:56.100Z,7.03
2022-10-28T13:37:24.443Z,6.70
2022-10-28T13:39:51.232Z,6.50
2022-10-28T13:42:19.685Z,6.37
2022-10-28T13:44:46.351Z,6.45
2022-10-28T13:47:12.871Z,6.53
2022-10-28T13:49:59.469Z,6.28
2022-10-28T13:52:25.987Z,6.63
2022-10-28T13:55:00.418Z,6.55
2022-10-28T13:57:39.263Z,6.37
2022-10-28T14:00:05.991Z,6.49
2022-10-28T14:02:36.698Z,6.28
2022-10-28T14:05:09.002Z,6.21
2022-10-28T14:07:38.437Z,6.88
2022-10-28T14:10:19.262Z,6.87
2022-10-28T14:12:51.276Z,6.71
2022-10-28T14:15:21.560Z,6.05
2022-10-28T14:17:52.699Z,6.27
2022-10-28T14:20:19.456Z,6.09
2022-10-28T14:22:46.154Z,6.03
2022-10-28T14:25:31.545Z,5.88
2022-10-28T14:27:58.101Z,5.96
2022-10-28T14:30:24.914Z,6.46
2022-10-28T14:33:00.260Z,6.43
2022-10-28T14:35:40.307Z,5.85
2022-10-28T14:38:06.836Z,5.32
2022-10-28T14:40:36.116Z,5.53
2022-10-28T14:43:05.741Z,5.63
2022-10-28T14:45:44.867Z,5.68
2022-10-28T14:48:22.505Z,5.53
2022-10-28T14:50:52.409Z,5.69
2022-10-28T14:53:25.374Z,5.50
2022-10-28T14:56:04.820Z,5.73
2022-10-28T14:58:36.907Z,5.42
2022-10-28T15:01:09.782Z,5.38
2022-10-28T15:03:36.817Z,5.03
2022-10-28T15:06:19.712Z,5.27
2022-10-28T15:08:46.390Z,5.13
2022-10-28T15:11:16.478Z,5.69
2022-10-28T15:13:43.418Z,5.57
2022-10-28T15:16:20.082Z,5.61
2022-10-28T15:18:49.001Z,5.14
2022-10-28T15:21:17.492Z,5.26
2022-10-28T15:23:47.305Z,5.50
2022-10-28T15:26:16.164Z,5.36
2022-10-28T15:28:43.524Z,5.69
2022-10-28T15:31:10.150Z,5.34
2022-10-28T15:33:38.226Z,5.29
2022-10-28T15:36:18.479Z,5.62
2022-10-28T15:38:45.380Z,5.82
2022-10-28T15:41:35.317Z,5.38
2022-10-28T15:44:03.185Z,5.42
2022-10-28T15:46:32.263Z,5.23
2022-10-28T15:49:00.491Z,5.57
2022-10-28T15:51:27.700Z,5.58
2022-10-28T15:54:09.499Z,5.80
2022-10-28T15:56:53.551Z,5.17
2022-10-28T15:59:22.339Z,5.29
2022-10-28T16:01:49.093Z,5.30
2022-10-28T16:04:18.613Z,5.43
2022-10-28T16:06:46.241Z,5.95
2022-10-28T16:09:17.984Z,5.09
2022-10-28T16:11:50.037Z,5.38
2022-10-28T16:14:37.161Z,5.21
2022-10-28T16:17:23.874Z,5.12
2022-10-28T16:19:56.468Z,5.14
2022-10-28T16:22:25.390Z,4.93
2022-10-28T16:24:53.213Z,4.44
2022-10-28T16:27:27.723Z,4.09
2022-10-28T16:29:54.383Z,3.85
2022-10-28T16:32:27.034Z,4.02
2022-10-28T16:34:53.686Z,3.97
2022-10-28T16:37:22.788Z,4.44
2022-10-28T16:39:50.048Z,4.76
2022-10-28T16:42:17.840Z,4.21
2022-10-28T16:44:44.780Z,4.32
2022-10-28T16:47:19.365Z,4.61
2022-10-28T16:49:52.568Z,3.79
2022-10-28T16:52:25.024Z,3.73
2022-10-28T16:54:51.829Z,3.37
2022-10-28T16:57:19.771Z,3.07
2022-10-28T16:59:46.621Z,3.61
2022-10-28T17:02:28.718Z,3.70
2022-10-28T17:04:56.021Z,3.80
2022-10-28T17:07:22.658Z,3.64
2022-10-28T17:09:49.248Z,3.71
2022-10-28T17:12:17.370Z,4.18
2022-10-28T17:14:44.552Z,4.24
2022-10-28T17:17:11.407Z,3.73
2022-10-28T17:19:38.732Z,3.72
2022-10-28T17:22:09.057Z,4.28
2022-10-28T17:24:36.698Z,4.26
2022-10-28T17:27:03.862Z,4.31
2022-10-28T17:29:30.697Z,4.03
2022-10-28T17:31:57.311Z,3.87
2022-10-28T17:34:23.985Z,4.04
2022-10-28T17:36:50.503Z,4.18
2022-10-28T17:39:20.716Z,3.98
2022-10-28T17:41:50.034Z,4.18
2022-10-28T17:44:16.886Z,4.38
2022-10-28T17:46:43.491Z,4.47
2022-10-28T17:49:10.136Z,4.75
2022-10-28T17:51:37.190Z,3.91
2022-10-28T17:54:06.193Z,4.11
2022-10-28T17:56:33.333Z,4.72
2022-10-28T17:59:03.338Z,4.48
2022-10-28T18:01:31.951Z,4.38
2022-10-28T18:03:58.875Z,4.71
2022-10-28T18:06:25.457Z,4.69
2022-10-28T18:08:52.972Z,4.54
2022-10-28T18:11:20.518Z,4.82
2022-10-28T18:13:49.949Z,4.47
2022-10-28T18:16:21.678Z,4.47
2022-10-28T18:18:48.522Z,5.05
2022-10-28T18:21:15.477Z,5.40
2022-10-28T18:23:42.103Z,4.99
2022-10-28T18:26:13.169Z,5.69
2022-10-28T18:28:40.917Z,5.60
2022-10-28T18:31:15.627Z,5.97
2022-10-28T18:33:43.225Z,5.63
2022-10-28T18:36:09.884Z,5.32
2022-10-28T18:38:36.676Z,5.57
2022-10-28T18:41:03.410Z,5.36
2022-10-28T18:43:30.086Z,5.55
2022-10-28T18:46:01.290Z,6.61
2022-10-28T18:48:27.942Z,6.65
2022-10-28T18:50:56.347Z,6.61
2022-10-28T18:53:22.984Z,5.84
2022-10-28T18:55:50.092Z,5.59
2022-10-28T18:58:17.443Z,5.73
2022-10-28T19:00:44.308Z,6.01
2022-10-28T19:03:19.332Z,6.07
2022-10-28T19:05:45.966Z,6.01
2022-10-28T19:08:12.901Z,5.75
2022-10-28T19:10:39.777Z,6.38
2022-10-28T19:13:06.379Z,6.46
2022-10-28T19:15:33.169Z,6.21
2022-10-28T19:17:59.787Z,6.57
2022-10-28T19:20:26.514Z,6.05
2022-10-28T19:22:53.434Z,6.34
2022-10-28T19:25:20.559Z,6.98
2022-10-28T19:27:47.094Z,6.44
2022-10-28T19:30:14.004Z,6.14
2022-10-28T19:32:40.651Z,6.91
2022-10-28T19:35:07.690Z,6.74
2022-10-28T19:37:35.148Z,6.97
2022-10-28T19:40:01.895Z,7.16
2022-10-28T19:42:28.803Z,7.28
2022-10-28T19:44:56.351Z,7.35
2022-10-28T19:47:22.931Z,6.31
2022-10-28T19:49:49.527Z,6.17
2022-10-28T19:52:16.370Z,5.78
2022-10-28T19:54:42.952Z,5.75
2022-10-28T19:57:09.722Z,5.83
2022-10-28T19:59:36.331Z,5.94
2022-10-28T20:02:03.400Z,5.41
2022-10-28T20:04:30.034Z,5.77
2022-10-28T20:06:58.855Z,5.57
2022-10-28T20:09:28.912Z,5.86
2022-10-28T20:11:55.983Z,5.96
2022-10-28T20:14:22.850Z,6.11
2022-10-28T20:16:49.620Z,6.38
2022-10-28T20:19:16.154Z,6.31
2022-10-28T20:21:44.614Z,5.65
2022-10-28T20:24:11.469Z,5.66
2022-10-28T20:26:39.071Z,5.45
2022-10-28T20:29:10.083Z,5.31
2022-10-28T20:31:38.949Z,5.70
2022-10-28T20:34:05.829Z,5.75
2022-10-28T20:36:36.584Z,6.37
2022-10-28T20:39:16.704Z,5.96
2022-10-28T20:41:44.297Z,5.98
2022-10-28T20:44:11.402Z,5.54
2022-10-28T20:46:38.171Z,4.92
2022-10-28T20:49:07.830Z,5.06
2022-10-28T20:51:35.707Z,5.64
2022-10-28T20:54:03.072Z,6.09
2022-10-28T20:56:31.056Z,5.86
2022-10-28T20:59:00.543Z,6.01
2022-10-28T21:01:32.158Z,6.04
2022-10-28T21:04:00.563Z,5.01
2022-10-28T21:06:27.219Z,5.14
2022-10-28T21:08:54.685Z,4.99
2022-10-28T21:11:23.624Z,5.24
2022-10-28T21:13:52.476Z,5.12
2022-10-28T21:16:20.106Z,5.59
2022-10-28T21:18:47.365Z,5.46
2022-10-28T21:21:14.399Z,5.27
2022-10-28T21:23:41.441Z,5.47
2022-10-28T21:26:08.698Z,4.76
2022-10-28T21:28:36.873Z,5.21
2022-10-28T21:31:11.588Z,5.17
2022-10-28T21:33:38.962Z,5.89
2022-10-28T21:36:07.728Z,6.87
2022-10-28T21:38:34.980Z,5.44
2022-10-28T21:41:03.458Z,5.33
2022-10-28T21:43:31.634Z,5.30
2022-10-28T21:45:58.612Z,5.39
2022-10-28T21:48:25.419Z,5.25
2022-10-28T21:50:53.114Z,5.70
2022-10-28T21:53:19.860Z,5.98
2022-10-28T21:55:47.713Z,5.94
2022-10-28T21:58:16.477Z,5.73
2022-10-28T22:00:43.858Z,6.26
2022-10-28T22:03:11.394Z,6.09
2022-10-28T22:05:38.352Z,6.22
2022-10-28T22:08:05.545Z,5.83
2022-10-28T22:10:32.137Z,6.16
2022-10-28T22:12:58.789Z,6.09
2022-10-28T22:15:25.412Z,5.91
2022-10-28T22:17:51.984Z,6.52
2022-10-28T22:20:18.520Z,7.16
2022-10-28T22:22:45.209Z,7.06
2022-10-28T22:25:11.745Z,7.00
2022-10-28T22:27:38.665Z,6.67
2022-10-28T22:30:05.429Z,5.95
2022-10-28T22:32:31.970Z,5.95
2022-10-28T22:34:58.721Z,5.87
2022-10-28T22:37:25.345Z,5.97
2022-10-28T22:39:51.863Z,6.32
2022-10-28T22:42:18.413Z,6.09
2022-10-28T22:44:44.966Z,5.81
2022-10-28T22:47:11.576Z,5.85
2022-10-28T22:49:38.103Z,5.72
2022-10-28T22:52:04.675Z,5.53
2022-10-28T22:54:31.487Z,5.65
2022-10-28T22:56:58.226Z,5.12
2022-10-28T22:59:25.401Z,5.37
2022-10-28T23:01:52.228Z,5.63
2022-10-28T23:04:18.805Z,5.36
2022-10-28T23:06:45.436Z,5.28
2022-10-28T23:09:12.228Z,4.87
2022-10-28T23:11:38.869Z,5.19
2022-10-28T23:14:05.424Z,5.17
2022-10-28T23:16:32.043Z,5.22
2022-10-28T23:19:00.620Z,5.20
2022-10-28T23:21:27.261Z,4.93
2022-10-28T23:23:55.134Z,5.33
2022-10-28T23:26:22.483Z,5.73
2022-10-28T23:28:53.528Z,5.35
2022-10-28T23:31:21.040Z,5.53
2022-10-28T23:33:47.676Z,5.25
2022-10-28T23:36:15.634Z,5.32
2022-10-28T23:38:42.376Z,5.24
2022-10-28T23:41:10.792Z,5.60
2022-10-28T23:43:37.895Z,5.14
2022-10-28T23:46:04.967Z,5.09
2022-10-28T23:48:31.653Z,5.17
2022-10-28T23:50:58.272Z,5.05
2022-10-28T23:53:25.361Z,4.97
2022-10-28T23:55:52.813Z,5.24
2022-10-28T23:58:21.248Z,5.19
